sensor_id;sensor_type;location;lat;lon;timestamp;P1;durP1;ratioP1;P2;durP2;ratioP2
11681;SDS011;5897;42.640;23.310;2023-10-31T00:01:39;4.65;;;2.88;;
11681;SDS011;5897;42.640;23.310;2023-10-31T00:04:06;4.90;;;2.70;;
11681;SDS011;5897;42.640;23.310;2023-10-31T00:06:33;6.90;;;2.80;;
11681;SDS011;5897;42.640;23.310;2023-10-31T00:09:00;6.15;;;3.33;;
11681;SDS011;5897;42.640;23.310;2023-10-31T00:11:27;6.55;;;3.38;;
11681;SDS011;5897;42.640;23.310;2023-10-31T00:13:54;6.68;;;3.53;;
11681;SDS011;5897;42.640;23.310;2023-10-31T00:16:20;5.90;;;3.45;;
11681;SDS011;5897;42.640;23.310;2023-10-31T00:18:48;6.75;;;3.42;;
11681;SDS011;5897;42.640;23.310;2023-10-31T00:21:15;7.25;;;3.58;;
11681;SDS011;5897;42.640;23.310;2023-10-31T00:23:43;5.60;;;3.70;;
11681;SDS011;5897;42.640;23.310;2023-10-31T00:26:10;6.63;;;3.60;;
11681;SDS011;5897;42.640;23.310;2023-10-31T00:28:36;6.53;;;4.18;;
11681;SDS011;5897;42.640;23.310;2023-10-31T00:31:03;5.88;;;3.80;;
11681;SDS011;5897;42.640;23.310;2023-10-31T00:33:31;5.25;;;3.80;;
11681;SDS011;5897;42.640;23.310;2023-10-31T00:36:00;8.60;;;4.13;;
11681;SDS011;5897;42.640;23.310;2023-10-31T00:38:27;7.35;;;4.55;;
11681;SDS011;5897;42.640;23.310;2023-10-31T00:40:54;5.75;;;3.90;;
11681;SDS011;5897;42.640;23.310;2023-10-31T00:43:21;9.65;;;4.10;;
11681;SDS011;5897;42.640;23.310;2023-10-31T00:45:48;7.00;;;3.90;;
11681;SDS011;5897;42.640;23.310;2023-10-31T00:48:14;9.10;;;4.25;;
11681;SDS011;5897;42.640;23.310;2023-10-31T00:50:41;8.48;;;4.55;;
11681;SDS011;5897;42.640;23.310;2023-10-31T00:53:09;8.35;;;4.13;;
11681;SDS011;5897;42.640;23.310;2023-10-31T00:55:36;5.78;;;4.50;;
11681;SDS011;5897;42.640;23.310;2023-10-31T00:58:03;5.97;;;4.18;;
11681;SDS011;5897;42.640;23.310;2023-10-31T01:00:30;7.35;;;5.00;;
11681;SDS011;5897;42.640;23.310;2023-10-31T01:02:59;6.20;;;4.10;;
11681;SDS011;5897;42.640;23.310;2023-10-31T01:05:26;6.13;;;3.90;;
11681;SDS011;5897;42.640;23.310;2023-10-31T01:07:53;5.35;;;3.83;;
11681;SDS011;5897;42.640;23.310;2023-10-31T01:10:21;6.65;;;3.60;;
11681;SDS011;5897;42.640;23.310;2023-10-31T01:12:48;8.20;;;4.07;;
11681;SDS011;5897;42.640;23.310;2023-10-31T01:15:15;7.05;;;3.83;;
11681;SDS011;5897;42.640;23.310;2023-10-31T01:17:42;6.07;;;4.13;;
11681;SDS011;5897;42.640;23.310;2023-10-31T01:20:09;8.85;;;4.50;;
11681;SDS011;5897;42.640;23.310;2023-10-31T01:22:37;7.93;;;4.50;;
11681;SDS011;5897;42.640;23.310;2023-10-31T01:25:04;7.18;;;4.30;;
11681;SDS011;5897;42.640;23.310;2023-10-31T01:27:32;7.10;;;4.55;;
11681;SDS011;5897;42.640;23.310;2023-10-31T01:29:59;8.98;;;4.97;;
11681;SDS011;5897;42.640;23.310;2023-10-31T01:32:26;10.73;;;5.40;;
11681;SDS011;5897;42.640;23.310;2023-10-31T01:34:53;6.47;;;4.80;;
11681;SDS011;5897;42.640;23.310;2023-10-31T01:37:19;7.50;;;4.50;;
11681;SDS011;5897;42.640;23.310;2023-10-31T01:39:46;8.60;;;4.43;;
11681;SDS011;5897;42.640;23.310;2023-10-31T01:42:13;10.23;;;4.88;;
11681;SDS011;5897;42.640;23.310;2023-10-31T01:44:42;10.27;;;5.00;;
11681;SDS011;5897;42.640;23.310;2023-10-31T01:47:09;9.60;;;4.93;;
11681;SDS011;5897;42.640;23.310;2023-10-31T01:49:36;8.25;;;4.95;;
11681;SDS011;5897;42.640;23.310;2023-10-31T01:52:04;7.07;;;4.40;;
11681;SDS011;5897;42.640;23.310;2023-10-31T01:54:31;5.55;;;3.50;;
11681;SDS011;5897;42.640;23.310;2023-10-31T01:56:59;8.43;;;3.95;;
11681;SDS011;5897;42.640;23.310;2023-10-31T01:59:26;8.55;;;4.47;;
11681;SDS011;5897;42.640;23.310;2023-10-31T02:01:55;6.38;;;4.07;;
11681;SDS011;5897;42.640;23.310;2023-10-31T02:04:23;6.57;;;3.55;;
11681;SDS011;5897;42.640;23.310;2023-10-31T02:06:51;7.28;;;3.63;;
11681;SDS011;5897;42.640;23.310;2023-10-31T02:09:17;6.15;;;3.55;;
11681;SDS011;5897;42.640;23.310;2023-10-31T02:11:44;6.45;;;3.35;;
11681;SDS011;5897;42.640;23.310;2023-10-31T02:14:11;5.93;;;3.08;;
11681;SDS011;5897;42.640;23.310;2023-10-31T02:16:38;5.85;;;3.47;;
11681;SDS011;5897;42.640;23.310;2023-10-31T02:19:06;4.22;;;3.60;;
11681;SDS011;5897;42.640;23.310;2023-10-31T02:21:33;7.90;;;3.80;;
11681;SDS011;5897;42.640;23.310;2023-10-31T02:24:02;5.78;;;3.50;;
11681;SDS011;5897;42.640;23.310;2023-10-31T02:26:29;9.75;;;3.90;;
11681;SDS011;5897;42.640;23.310;2023-10-31T02:28:56;6.38;;;3.50;;
11681;SDS011;5897;42.640;23.310;2023-10-31T02:31:23;5.10;;;3.53;;
11681;SDS011;5897;42.640;23.310;2023-10-31T02:33:50;5.28;;;3.63;;
11681;SDS011;5897;42.640;23.310;2023-10-31T02:36:17;6.25;;;3.65;;
11681;SDS011;5897;42.640;23.310;2023-10-31T02:38:44;5.25;;;3.67;;
11681;SDS011;5897;42.640;23.310;2023-10-31T02:41:12;6.47;;;4.05;;
11681;SDS011;5897;42.640;23.310;2023-10-31T02:43:40;4.75;;;3.45;;
11681;SDS011;5897;42.640;23.310;2023-10-31T02:46:07;7.82;;;4.13;;
11681;SDS011;5897;42.640;23.310;2023-10-31T02:48:36;8.70;;;3.85;;
11681;SDS011;5897;42.640;23.310;2023-10-31T02:51:05;4.95;;;3.75;;
11681;SDS011;5897;42.640;23.310;2023-10-31T02:53:32;6.70;;;4.05;;
11681;SDS011;5897;42.640;23.310;2023-10-31T02:55:59;7.63;;;3.80;;
11681;SDS011;5897;42.640;23.310;2023-10-31T02:58:27;9.90;;;4.07;;
11681;SDS011;5897;42.640;23.310;2023-10-31T03:00:54;6.70;;;4.20;;
11681;SDS011;5897;42.640;23.310;2023-10-31T03:03:21;6.28;;;4.05;;
11681;SDS011;5897;42.640;23.310;2023-10-31T03:05:47;7.22;;;4.10;;
11681;SDS011;5897;42.640;23.310;2023-10-31T03:08:14;8.82;;;4.45;;
11681;SDS011;5897;42.640;23.310;2023-10-31T03:10:45;9.07;;;4.50;;
11681;SDS011;5897;42.640;23.310;2023-10-31T03:13:14;7.18;;;4.05;;
11681;SDS011;5897;42.640;23.310;2023-10-31T03:15:43;6.38;;;4.50;;
11681;SDS011;5897;42.640;23.310;2023-10-31T03:18:10;8.75;;;4.88;;
11681;SDS011;5897;42.640;23.310;2023-10-31T03:20:36;6.53;;;4.57;;
11681;SDS011;5897;42.640;23.310;2023-10-31T03:23:03;8.88;;;4.28;;
11681;SDS011;5897;42.640;23.310;2023-10-31T03:25:30;6.55;;;4.50;;
11681;SDS011;5897;42.640;23.310;2023-10-31T03:27:57;5.90;;;4.65;;
11681;SDS011;5897;42.640;23.310;2023-10-31T03:30:23;7.80;;;5.07;;
11681;SDS011;5897;42.640;23.310;2023-10-31T03:32:51;7.60;;;4.93;;
11681;SDS011;5897;42.640;23.310;2023-10-31T03:35:18;6.55;;;4.75;;
11681;SDS011;5897;42.640;23.310;2023-10-31T03:37:45;10.80;;;5.38;;
11681;SDS011;5897;42.640;23.310;2023-10-31T03:40:12;7.38;;;4.65;;
11681;SDS011;5897;42.640;23.310;2023-10-31T03:42:39;7.15;;;4.90;;
11681;SDS011;5897;42.640;23.310;2023-10-31T03:45:06;8.07;;;4.38;;
11681;SDS011;5897;42.640;23.310;2023-10-31T03:47:33;6.85;;;4.40;;
11681;SDS011;5897;42.640;23.310;2023-10-31T03:50:01;6.38;;;4.45;;
11681;SDS011;5897;42.640;23.310;2023-10-31T03:52:28;9.13;;;5.00;;
11681;SDS011;5897;42.640;23.310;2023-10-31T03:54:55;8.32;;;4.85;;
11681;SDS011;5897;42.640;23.310;2023-10-31T03:57:22;7.68;;;4.50;;
11681;SDS011;5897;42.640;23.310;2023-10-31T03:59:48;9.68;;;4.80;;
11681;SDS011;5897;42.640;23.310;2023-10-31T04:02:15;9.02;;;5.75;;
11681;SDS011;5897;42.640;23.310;2023-10-31T04:04:42;9.25;;;5.03;;
11681;SDS011;5897;42.640;23.310;2023-10-31T04:07:10;8.77;;;5.03;;
11681;SDS011;5897;42.640;23.310;2023-10-31T04:09:37;8.88;;;5.32;;
11681;SDS011;5897;42.640;23.310;2023-10-31T04:12:04;8.25;;;5.25;;
11681;SDS011;5897;42.640;23.310;2023-10-31T04:14:31;8.02;;;5.40;;
11681;SDS011;5897;42.640;23.310;2023-10-31T04:16:58;8.93;;;5.30;;
11681;SDS011;5897;42.640;23.310;2023-10-31T04:19:25;9.35;;;5.28;;
11681;SDS011;5897;42.640;23.310;2023-10-31T04:21:52;8.07;;;5.28;;
11681;SDS011;5897;42.640;23.310;2023-10-31T04:24:21;8.63;;;6.07;;
11681;SDS011;5897;42.640;23.310;2023-10-31T04:26:48;9.75;;;5.40;;
11681;SDS011;5897;42.640;23.310;2023-10-31T04:29:14;8.48;;;6.00;;
11681;SDS011;5897;42.640;23.310;2023-10-31T04:31:41;10.23;;;5.80;;
11681;SDS011;5897;42.640;23.310;2023-10-31T04:34:08;9.95;;;6.10;;
11681;SDS011;5897;42.640;23.310;2023-10-31T04:36:35;7.68;;;5.45;;
11681;SDS011;5897;42.640;23.310;2023-10-31T04:39:01;10.00;;;5.57;;
11681;SDS011;5897;42.640;23.310;2023-10-31T04:41:30;7.88;;;5.63;;
11681;SDS011;5897;42.640;23.310;2023-10-31T04:43:56;7.57;;;5.60;;
11681;SDS011;5897;42.640;23.310;2023-10-31T04:46:24;13.20;;;5.70;;
11681;SDS011;5897;42.640;23.310;2023-10-31T04:48:53;9.00;;;5.53;;
11681;SDS011;5897;42.640;23.310;2023-10-31T04:51:19;11.18;;;5.75;;
11681;SDS011;5897;42.640;23.310;2023-10-31T04:53:46;8.77;;;5.97;;
11681;SDS011;5897;42.640;23.310;2023-10-31T04:56:13;8.73;;;5.30;;
11681;SDS011;5897;42.640;23.310;2023-10-31T04:58:42;6.82;;;5.53;;
11681;SDS011;5897;42.640;23.310;2023-10-31T05:01:11;9.70;;;5.85;;
11681;SDS011;5897;42.640;23.310;2023-10-31T05:03:39;9.95;;;5.95;;
11681;SDS011;5897;42.640;23.310;2023-10-31T05:06:06;6.68;;;5.38;;
11681;SDS011;5897;42.640;23.310;2023-10-31T05:08:33;8.18;;;5.30;;
11681;SDS011;5897;42.640;23.310;2023-10-31T05:10:59;7.85;;;5.93;;
11681;SDS011;5897;42.640;23.310;2023-10-31T05:13:26;7.68;;;5.40;;
11681;SDS011;5897;42.640;23.310;2023-10-31T05:15:54;7.50;;;5.97;;
11681;SDS011;5897;42.640;23.310;2023-10-31T05:18:21;9.93;;;6.63;;
11681;SDS011;5897;42.640;23.310;2023-10-31T05:20:49;10.77;;;6.07;;
11681;SDS011;5897;42.640;23.310;2023-10-31T05:23:16;10.10;;;6.07;;
11681;SDS011;5897;42.640;23.310;2023-10-31T05:25:42;10.77;;;6.28;;
11681;SDS011;5897;42.640;23.310;2023-10-31T05:28:09;9.57;;;6.03;;
11681;SDS011;5897;42.640;23.310;2023-10-31T05:30:36;12.07;;;6.03;;
11681;SDS011;5897;42.640;23.310;2023-10-31T05:33:04;8.23;;;6.20;;
11681;SDS011;5897;42.640;23.310;2023-10-31T05:35:31;10.23;;;6.35;;
11681;SDS011;5897;42.640;23.310;2023-10-31T05:37:59;7.90;;;6.13;;
11681;SDS011;5897;42.640;23.310;2023-10-31T05:40:26;10.18;;;6.18;;
11681;SDS011;5897;42.640;23.310;2023-10-31T05:42:54;9.15;;;6.35;;
11681;SDS011;5897;42.640;23.310;2023-10-31T05:45:22;12.35;;;6.30;;
11681;SDS011;5897;42.640;23.310;2023-10-31T05:47:49;8.85;;;6.38;;
11681;SDS011;5897;42.640;23.310;2023-10-31T05:50:17;12.82;;;7.35;;
11681;SDS011;5897;42.640;23.310;2023-10-31T05:52:44;9.75;;;6.32;;
11681;SDS011;5897;42.640;23.310;2023-10-31T05:55:11;12.13;;;6.25;;
11681;SDS011;5897;42.640;23.310;2023-10-31T05:57:38;13.30;;;6.78;;
11681;SDS011;5897;42.640;23.310;2023-10-31T06:00:05;12.27;;;6.22;;
11681;SDS011;5897;42.640;23.310;2023-10-31T06:02:33;13.95;;;6.25;;
11681;SDS011;5897;42.640;23.310;2023-10-31T06:05:00;11.57;;;7.07;;
11681;SDS011;5897;42.640;23.310;2023-10-31T06:07:28;14.85;;;7.10;;
11681;SDS011;5897;42.640;23.310;2023-10-31T06:09:55;18.02;;;7.95;;
11681;SDS011;5897;42.640;23.310;2023-10-31T06:12:22;14.05;;;7.65;;
11681;SDS011;5897;42.640;23.310;2023-10-31T06:14:49;11.77;;;7.82;;
11681;SDS011;5897;42.640;23.310;2023-10-31T06:17:15;15.20;;;7.50;;
11681;SDS011;5897;42.640;23.310;2023-10-31T06:19:42;16.02;;;8.95;;
11681;SDS011;5897;42.640;23.310;2023-10-31T06:22:10;14.40;;;7.47;;
11681;SDS011;5897;42.640;23.310;2023-10-31T06:24:39;10.35;;;7.30;;
11681;SDS011;5897;42.640;23.310;2023-10-31T06:27:06;17.70;;;8.10;;
11681;SDS011;5897;42.640;23.310;2023-10-31T06:29:33;14.90;;;8.18;;
11681;SDS011;5897;42.640;23.310;2023-10-31T06:32:00;13.77;;;8.35;;
11681;SDS011;5897;42.640;23.310;2023-10-31T06:34:27;12.95;;;8.50;;
11681;SDS011;5897;42.640;23.310;2023-10-31T06:36:54;13.93;;;8.75;;
11681;SDS011;5897;42.640;23.310;2023-10-31T06:39:21;11.65;;;8.95;;
11681;SDS011;5897;42.640;23.310;2023-10-31T06:41:50;22.27;;;9.45;;
11681;SDS011;5897;42.640;23.310;2023-10-31T06:44:21;15.50;;;9.15;;
11681;SDS011;5897;42.640;23.310;2023-10-31T06:46:48;13.50;;;8.45;;
11681;SDS011;5897;42.640;23.310;2023-10-31T06:49:15;14.10;;;8.98;;
11681;SDS011;5897;42.640;23.310;2023-10-31T06:51:42;15.32;;;9.13;;
11681;SDS011;5897;42.640;23.310;2023-10-31T06:54:08;14.10;;;8.43;;
11681;SDS011;5897;42.640;23.310;2023-10-31T06:56:35;17.45;;;9.00;;
11681;SDS011;5897;42.640;23.310;2023-10-31T06:59:04;16.50;;;8.20;;
11681;SDS011;5897;42.640;23.310;2023-10-31T07:01:31;14.35;;;9.52;;
11681;SDS011;5897;42.640;23.310;2023-10-31T07:03:58;15.07;;;9.23;;
11681;SDS011;5897;42.640;23.310;2023-10-31T07:06:25;27.98;;;9.88;;
11681;SDS011;5897;42.640;23.310;2023-10-31T07:08:52;28.27;;;9.50;;
11681;SDS011;5897;42.640;23.310;2023-10-31T07:11:19;13.68;;;8.88;;
11681;SDS011;5897;42.640;23.310;2023-10-31T07:13:46;17.83;;;9.02;;
11681;SDS011;5897;42.640;23.310;2023-10-31T07:16:14;16.13;;;9.77;;
11681;SDS011;5897;42.640;23.310;2023-10-31T07:18:41;20.75;;;8.90;;
11681;SDS011;5897;42.640;23.310;2023-10-31T07:21:08;16.85;;;9.05;;
11681;SDS011;5897;42.640;23.310;2023-10-31T07:23:34;17.77;;;9.57;;
11681;SDS011;5897;42.640;23.310;2023-10-31T07:26:02;17.60;;;8.73;;
11681;SDS011;5897;42.640;23.310;2023-10-31T07:28:29;12.43;;;8.75;;
11681;SDS011;5897;42.640;23.310;2023-10-31T07:30:56;17.13;;;9.43;;
11681;SDS011;5897;42.640;23.310;2023-10-31T07:33:24;25.92;;;8.88;;
11681;SDS011;5897;42.640;23.310;2023-10-31T07:35:51;16.17;;;9.20;;
11681;SDS011;5897;42.640;23.310;2023-10-31T07:38:18;17.00;;;8.68;;
11681;SDS011;5897;42.640;23.310;2023-10-31T07:40:44;14.63;;;8.77;;
11681;SDS011;5897;42.640;23.310;2023-10-31T07:43:13;16.95;;;9.00;;
11681;SDS011;5897;42.640;23.310;2023-10-31T07:45:39;15.85;;;8.73;;
11681;SDS011;5897;42.640;23.310;2023-10-31T07:48:07;18.65;;;9.25;;
11681;SDS011;5897;42.640;23.310;2023-10-31T07:50:35;20.30;;;9.52;;
11681;SDS011;5897;42.640;23.310;2023-10-31T07:53:02;20.52;;;8.10;;
11681;SDS011;5897;42.640;23.310;2023-10-31T07:55:29;12.20;;;7.22;;
11681;SDS011;5897;42.640;23.310;2023-10-31T07:57:56;15.27;;;6.75;;
11681;SDS011;5897;42.640;23.310;2023-10-31T08:00:22;10.95;;;6.32;;
11681;SDS011;5897;42.640;23.310;2023-10-31T08:02:49;12.10;;;7.78;;
11681;SDS011;5897;42.640;23.310;2023-10-31T08:05:16;15.07;;;7.05;;
11681;SDS011;5897;42.640;23.310;2023-10-31T08:07:44;16.67;;;8.02;;
11681;SDS011;5897;42.640;23.310;2023-10-31T08:10:11;11.95;;;7.35;;
11681;SDS011;5897;42.640;23.310;2023-10-31T08:12:38;16.25;;;7.32;;
11681;SDS011;5897;42.640;23.310;2023-10-31T08:15:05;15.60;;;7.55;;
11681;SDS011;5897;42.640;23.310;2023-10-31T08:17:32;14.70;;;6.25;;
11681;SDS011;5897;42.640;23.310;2023-10-31T08:19:59;12.30;;;6.00;;
11681;SDS011;5897;42.640;23.310;2023-10-31T08:22:28;11.05;;;5.68;;
11681;SDS011;5897;42.640;23.310;2023-10-31T08:24:56;12.35;;;6.22;;
11681;SDS011;5897;42.640;23.310;2023-10-31T08:27:23;14.63;;;6.10;;
11681;SDS011;5897;42.640;23.310;2023-10-31T08:29:50;12.95;;;6.30;;
11681;SDS011;5897;42.640;23.310;2023-10-31T08:32:16;11.63;;;5.80;;
11681;SDS011;5897;42.640;23.310;2023-10-31T08:34:43;14.45;;;6.28;;
11681;SDS011;5897;42.640;23.310;2023-10-31T08:37:10;13.60;;;6.68;;
11681;SDS011;5897;42.640;23.310;2023-10-31T08:39:37;12.82;;;8.35;;
11681;SDS011;5897;42.640;23.310;2023-10-31T08:42:05;12.65;;;5.53;;
11681;SDS011;5897;42.640;23.310;2023-10-31T08:44:32;11.75;;;6.10;;
11681;SDS011;5897;42.640;23.310;2023-10-31T08:47:01;10.27;;;5.40;;
11681;SDS011;5897;42.640;23.310;2023-10-31T08:49:28;11.88;;;6.32;;
11681;SDS011;5897;42.640;23.310;2023-10-31T08:51:55;13.63;;;6.72;;
11681;SDS011;5897;42.640;23.310;2023-10-31T08:54:22;17.23;;;7.25;;
11681;SDS011;5897;42.640;23.310;2023-10-31T08:56:48;14.98;;;6.70;;
11681;SDS011;5897;42.640;23.310;2023-10-31T08:59:17;14.63;;;6.13;;
11681;SDS011;5897;42.640;23.310;2023-10-31T09:01:43;16.38;;;6.20;;
11681;SDS011;5897;42.640;23.310;2023-10-31T09:04:10;13.23;;;5.97;;
11681;SDS011;5897;42.640;23.310;2023-10-31T09:06:37;12.77;;;5.93;;
11681;SDS011;5897;42.640;23.310;2023-10-31T09:09:04;10.18;;;6.03;;
11681;SDS011;5897;42.640;23.310;2023-10-31T09:11:30;11.07;;;5.30;;
11681;SDS011;5897;42.640;23.310;2023-10-31T09:13:57;10.70;;;4.78;;
11681;SDS011;5897;42.640;23.310;2023-10-31T09:16:25;15.90;;;5.60;;
11681;SDS011;5897;42.640;23.310;2023-10-31T09:18:52;11.18;;;5.32;;
11681;SDS011;5897;42.640;23.310;2023-10-31T09:21:19;9.80;;;4.57;;
11681;SDS011;5897;42.640;23.310;2023-10-31T09:23:46;11.32;;;4.47;;
11681;SDS011;5897;42.640;23.310;2023-10-31T09:26:12;11.80;;;4.88;;
11681;SDS011;5897;42.640;23.310;2023-10-31T09:28:39;9.05;;;4.50;;
11681;SDS011;5897;42.640;23.310;2023-10-31T09:31:14;10.30;;;4.20;;
11681;SDS011;5897;42.640;23.310;2023-10-31T09:33:42;13.52;;;4.57;;
11681;SDS011;5897;42.640;23.310;2023-10-31T09:36:09;9.68;;;4.45;;
11681;SDS011;5897;42.640;23.310;2023-10-31T09:38:37;11.30;;;8.00;;
11681;SDS011;5897;42.640;23.310;2023-10-31T09:41:05;9.45;;;4.22;;
11681;SDS011;5897;42.640;23.310;2023-10-31T09:43:32;8.73;;;4.15;;
11681;SDS011;5897;42.640;23.310;2023-10-31T09:45:59;11.88;;;4.68;;
11681;SDS011;5897;42.640;23.310;2023-10-31T09:48:27;7.10;;;3.42;;
11681;SDS011;5897;42.640;23.310;2023-10-31T09:50:56;7.72;;;3.33;;
11681;SDS011;5897;42.640;23.310;2023-10-31T09:53:23;8.50;;;3.08;;
11681;SDS011;5897;42.640;23.310;2023-10-31T09:55:50;6.82;;;3.10;;
11681;SDS011;5897;42.640;23.310;2023-10-31T09:58:21;7.53;;;3.30;;
11681;SDS011;5897;42.640;23.310;2023-10-31T10:00:48;6.07;;;3.50;;
11681;SDS011;5897;42.640;23.310;2023-10-31T10:03:15;6.53;;;2.67;;
11681;SDS011;5897;42.640;23.310;2023-10-31T10:05:43;7.60;;;3.63;;
11681;SDS011;5897;42.640;23.310;2023-10-31T10:08:14;7.22;;;3.05;;
11681;SDS011;5897;42.640;23.310;2023-10-31T10:10:41;6.32;;;3.60;;
11681;SDS011;5897;42.640;23.310;2023-10-31T10:13:08;8.50;;;3.30;;
11681;SDS011;5897;42.640;23.310;2023-10-31T10:15:45;5.47;;;2.95;;
11681;SDS011;5897;42.640;23.310;2023-10-31T10:18:24;4.45;;;2.80;;
11681;SDS011;5897;42.640;23.310;2023-10-31T10:20:55;6.93;;;2.55;;
11681;SDS011;5897;42.640;23.310;2023-10-31T10:23:24;6.22;;;2.60;;
11681;SDS011;5897;42.640;23.310;2023-10-31T10:25:52;8.20;;;3.95;;
11681;SDS011;5897;42.640;23.310;2023-10-31T10:28:21;19.33;;;17.27;;
11681;SDS011;5897;42.640;23.310;2023-10-31T10:30:49;6.00;;;3.05;;
11681;SDS011;5897;42.640;23.310;2023-10-31T10:33:17;10.98;;;2.88;;
11681;SDS011;5897;42.640;23.310;2023-10-31T10:35:44;7.75;;;2.70;;
11681;SDS011;5897;42.640;23.310;2023-10-31T10:38:12;5.95;;;3.20;;
11681;SDS011;5897;42.640;23.310;2023-10-31T10:40:41;6.30;;;2.92;;
11681;SDS011;5897;42.640;23.310;2023-10-31T10:43:11;7.63;;;2.60;;
11681;SDS011;5897;42.640;23.310;2023-10-31T10:45:41;6.85;;;3.25;;
11681;SDS011;5897;42.640;23.310;2023-10-31T10:48:11;8.23;;;3.00;;
11681;SDS011;5897;42.640;23.310;2023-10-31T10:50:41;6.65;;;2.47;;
11681;SDS011;5897;42.640;23.310;2023-10-31T10:53:11;6.68;;;2.90;;
11681;SDS011;5897;42.640;23.310;2023-10-31T10:55:45;7.13;;;2.78;;
11681;SDS011;5897;42.640;23.310;2023-10-31T10:58:18;13.63;;;6.35;;
11681;SDS011;5897;42.640;23.310;2023-10-31T11:00:52;5.70;;;2.80;;
11681;SDS011;5897;42.640;23.310;2023-10-31T11:03:21;5.50;;;2.30;;
11681;SDS011;5897;42.640;23.310;2023-10-31T11:05:50;4.68;;;2.40;;
11681;SDS011;5897;42.640;23.310;2023-10-31T11:08:17;5.85;;;2.88;;
11681;SDS011;5897;42.640;23.310;2023-10-31T11:10:47;8.23;;;2.72;;
11681;SDS011;5897;42.640;23.310;2023-10-31T11:13:15;7.53;;;3.00;;
11681;SDS011;5897;42.640;23.310;2023-10-31T11:15:42;6.70;;;2.60;;
11681;SDS011;5897;42.640;23.310;2023-10-31T11:18:28;7.18;;;2.60;;
11681;SDS011;5897;42.640;23.310;2023-10-31T11:20:56;7.90;;;2.60;;
11681;SDS011;5897;42.640;23.310;2023-10-31T11:23:22;6.65;;;2.50;;
11681;SDS011;5897;42.640;23.310;2023-10-31T11:25:51;7.75;;;3.50;;
11681;SDS011;5897;42.640;23.310;2023-10-31T11:28:19;8.50;;;3.10;;
11681;SDS011;5897;42.640;23.310;2023-10-31T11:30:48;11.20;;;3.13;;
11681;SDS011;5897;42.640;23.310;2023-10-31T11:33:16;6.55;;;2.53;;
11681;SDS011;5897;42.640;23.310;2023-10-31T11:35:49;6.85;;;2.53;;
11681;SDS011;5897;42.640;23.310;2023-10-31T11:38:16;6.60;;;2.35;;
11681;SDS011;5897;42.640;23.310;2023-10-31T11:41:02;6.40;;;2.90;;
11681;SDS011;5897;42.640;23.310;2023-10-31T11:46:18;5.55;;;2.08;;
11681;SDS011;5897;42.640;23.310;2023-10-31T11:48:46;7.93;;;2.47;;
11681;SDS011;5897;42.640;23.310;2023-10-31T11:51:13;5.55;;;1.92;;
11681;SDS011;5897;42.640;23.310;2023-10-31T11:53:40;3.75;;;2.08;;
11681;SDS011;5897;42.640;23.310;2023-10-31T11:56:10;3.58;;;2.03;;
11681;SDS011;5897;42.640;23.310;2023-10-31T11:58:37;5.35;;;2.10;;
11681;SDS011;5897;42.640;23.310;2023-10-31T12:01:05;8.52;;;2.00;;
11681;SDS011;5897;42.640;23.310;2023-10-31T12:03:36;3.55;;;1.83;;
11681;SDS011;5897;42.640;23.310;2023-10-31T12:06:04;3.85;;;1.77;;
11681;SDS011;5897;42.640;23.310;2023-10-31T12:08:31;5.03;;;1.98;;
11681;SDS011;5897;42.640;23.310;2023-10-31T12:11:02;5.20;;;2.00;;
11681;SDS011;5897;42.640;23.310;2023-10-31T12:13:32;5.25;;;1.92;;
11681;SDS011;5897;42.640;23.310;2023-10-31T12:16:00;5.20;;;2.00;;
11681;SDS011;5897;42.640;23.310;2023-10-31T12:18:27;6.40;;;2.10;;
11681;SDS011;5897;42.640;23.310;2023-10-31T12:20:54;4.45;;;1.80;;
11681;SDS011;5897;42.640;23.310;2023-10-31T12:23:21;6.20;;;1.95;;
11681;SDS011;5897;42.640;23.310;2023-10-31T12:25:48;5.28;;;2.03;;
11681;SDS011;5897;42.640;23.310;2023-10-31T12:28:16;7.25;;;2.05;;
11681;SDS011;5897;42.640;23.310;2023-10-31T12:30:48;4.07;;;1.98;;
11681;SDS011;5897;42.640;23.310;2023-10-31T12:33:17;6.40;;;2.10;;
11681;SDS011;5897;42.640;23.310;2023-10-31T12:35:44;5.63;;;2.28;;
11681;SDS011;5897;42.640;23.310;2023-10-31T12:38:11;5.97;;;2.20;;
11681;SDS011;5897;42.640;23.310;2023-10-31T12:40:39;6.28;;;2.63;;
11681;SDS011;5897;42.640;23.310;2023-10-31T12:43:06;4.75;;;2.08;;
11681;SDS011;5897;42.640;23.310;2023-10-31T12:45:35;8.30;;;2.30;;
11681;SDS011;5897;42.640;23.310;2023-10-31T12:48:03;5.95;;;2.30;;
11681;SDS011;5897;42.640;23.310;2023-10-31T12:50:31;6.13;;;2.20;;
11681;SDS011;5897;42.640;23.310;2023-10-31T12:52:58;5.63;;;2.53;;
11681;SDS011;5897;42.640;23.310;2023-10-31T12:55:26;3.80;;;2.08;;
11681;SDS011;5897;42.640;23.310;2023-10-31T12:57:54;7.18;;;2.15;;
11681;SDS011;5897;42.640;23.310;2023-10-31T13:00:22;9.40;;;2.40;;
11681;SDS011;5897;42.640;23.310;2023-10-31T13:02:58;6.47;;;2.03;;
11681;SDS011;5897;42.640;23.310;2023-10-31T13:05:27;3.55;;;1.58;;
11681;SDS011;5897;42.640;23.310;2023-10-31T13:07:55;3.80;;;1.67;;
11681;SDS011;5897;42.640;23.310;2023-10-31T13:10:25;5.47;;;2.55;;
11681;SDS011;5897;42.640;23.310;2023-10-31T13:12:52;10.57;;;2.50;;
11681;SDS011;5897;42.640;23.310;2023-10-31T13:15:20;9.70;;;2.40;;
11681;SDS011;5897;42.640;23.310;2023-10-31T13:17:48;8.98;;;2.40;;
11681;SDS011;5897;42.640;23.310;2023-10-31T13:20:15;7.90;;;2.40;;
11681;SDS011;5897;42.640;23.310;2023-10-31T13:22:45;7.70;;;2.40;;
11681;SDS011;5897;42.640;23.310;2023-10-31T13:25:12;5.25;;;2.55;;
11681;SDS011;5897;42.640;23.310;2023-10-31T13:27:41;10.48;;;2.35;;
11681;SDS011;5897;42.640;23.310;2023-10-31T13:30:09;7.72;;;3.95;;
11681;SDS011;5897;42.640;23.310;2023-10-31T13:32:37;6.05;;;2.60;;
11681;SDS011;5897;42.640;23.310;2023-10-31T13:35:04;6.65;;;2.47;;
11681;SDS011;5897;42.640;23.310;2023-10-31T13:37:31;9.70;;;2.72;;
11681;SDS011;5897;42.640;23.310;2023-10-31T13:40:01;9.52;;;2.60;;
11681;SDS011;5897;42.640;23.310;2023-10-31T13:42:28;8.65;;;2.50;;
11681;SDS011;5897;42.640;23.310;2023-10-31T13:44:55;6.68;;;2.63;;
11681;SDS011;5897;42.640;23.310;2023-10-31T13:47:22;5.80;;;2.15;;
11681;SDS011;5897;42.640;23.310;2023-10-31T13:49:49;10.20;;;2.72;;
11681;SDS011;5897;42.640;23.310;2023-10-31T13:52:16;6.88;;;2.42;;
11681;SDS011;5897;42.640;23.310;2023-10-31T13:54:43;7.82;;;2.50;;
11681;SDS011;5897;42.640;23.310;2023-10-31T13:57:11;7.05;;;2.38;;
11681;SDS011;5897;42.640;23.310;2023-10-31T13:59:39;7.57;;;2.45;;
11681;SDS011;5897;42.640;23.310;2023-10-31T14:02:06;6.90;;;2.58;;
11681;SDS011;5897;42.640;23.310;2023-10-31T14:04:34;11.57;;;2.33;;
11681;SDS011;5897;42.640;23.310;2023-10-31T14:07:01;5.95;;;2.28;;
11681;SDS011;5897;42.640;23.310;2023-10-31T14:09:28;7.72;;;2.38;;
11681;SDS011;5897;42.640;23.310;2023-10-31T14:11:55;6.72;;;2.15;;
11681;SDS011;5897;42.640;23.310;2023-10-31T14:14:24;6.45;;;2.22;;
11681;SDS011;5897;42.640;23.310;2023-10-31T14:16:50;12.63;;;2.45;;
11681;SDS011;5897;42.640;23.310;2023-10-31T14:19:17;12.02;;;2.50;;
11681;SDS011;5897;42.640;23.310;2023-10-31T14:21:44;3.53;;;1.85;;
11681;SDS011;5897;42.640;23.310;2023-10-31T14:24:11;9.23;;;2.40;;
11681;SDS011;5897;42.640;23.310;2023-10-31T14:26:38;7.68;;;2.78;;
11681;SDS011;5897;42.640;23.310;2023-10-31T14:29:05;7.78;;;2.67;;
11681;SDS011;5897;42.640;23.310;2023-10-31T14:31:37;10.73;;;3.60;;
11681;SDS011;5897;42.640;23.310;2023-10-31T14:34:04;8.27;;;3.90;;
11681;SDS011;5897;42.640;23.310;2023-10-31T14:36:31;15.63;;;3.55;;
11681;SDS011;5897;42.640;23.310;2023-10-31T14:38:58;13.18;;;3.30;;
11681;SDS011;5897;42.640;23.310;2023-10-31T14:41:25;9.82;;;2.88;;
11681;SDS011;5897;42.640;23.310;2023-10-31T14:43:51;8.73;;;3.38;;
11681;SDS011;5897;42.640;23.310;2023-10-31T14:46:18;8.10;;;3.70;;
11681;SDS011;5897;42.640;23.310;2023-10-31T14:48:47;10.32;;;3.50;;